createdAt,value
2022-12-05T00:01:22.852Z,16.90
2022-12-05T00:03:50.374Z,18.58
2022-12-05T00:06:17.240Z,18.88
2022-12-05T00:08:44.002Z,18.45
2022-12-05T00:11:11.266Z,19.98
2022-12-05T00:13:39.831Z,19.70
2022-12-05T00:16:10.279Z,19.48
2022-12-05T00:18:36.902Z,19.23
2022-12-05T00:21:03.594Z,19.75
2022-12-05T00:23:30.101Z,18.30
2022-12-05T00:25:56.409Z,18.25
2022-12-05T00:28:22.732Z,18.33
2022-12-05T00:30:48.991Z,17.08
2022-12-05T00:33:15.252Z,17.70
2022-12-05T00:35:41.533Z,18.13
2022-12-05T00:38:07.802Z,17.73
2022-12-05T00:40:35.548Z,16.98
2022-12-05T00:43:01.892Z,18.77
2022-12-05T00:45:28.168Z,20.25
2022-12-05T00:47:54.511Z,18.83
2022-12-05T00:50:20.860Z,18.15
2022-12-05T00:52:47.167Z,19.83
2022-12-05T00:55:13.519Z,20.02
2022-12-05T00:57:39.874Z,21.42
2022-12-05T01:00:06.578Z,20.98
2022-12-05T01:02:32.972Z,21.40
2022-12-05T01:04:59.276Z,20.55
2022-12-05T01:07:25.617Z,20.13
2022-12-05T01:09:52.002Z,20.05
2022-12-05T01:12:18.295Z,20.45
2022-12-05T01:14:44.555Z,19.45
2022-12-05T01:17:11.142Z,19.15
2022-12-05T01:19:37.658Z,18.23
2022-12-05T01:22:03.975Z,19.63
2022-12-05T01:24:30.679Z,23.98
2022-12-05T01:26:57.244Z,24.30
2022-12-05T01:29:24.637Z,21.63
2022-12-05T01:31:51.124Z,19.90
2022-12-05T01:34:18.217Z,21.52
2022-12-05T01:36:46.104Z,20.42
2022-12-05T01:39:13.467Z,21.05
2022-12-05T01:41:44.367Z,19.75
2022-12-05T01:44:10.594Z,19.25
2022-12-05T01:46:38.561Z,19.42
2022-12-05T01:49:07.510Z,19.95
2022-12-05T01:51:34.385Z,19.63
2022-12-05T01:54:01.077Z,17.83
2022-12-05T01:56:27.505Z,18.30
2022-12-05T01:58:53.944Z,18.55
2022-12-05T02:01:20.512Z,18.13
2022-12-05T02:03:48.155Z,18.30
2022-12-05T02:06:14.511Z,17.95
2022-12-05T02:08:41.612Z,18.20
2022-12-05T02:11:08.859Z,18.70
2022-12-05T02:13:53.335Z,19.05
2022-12-05T02:16:28.838Z,19.27
2022-12-05T02:19:14.172Z,19.85
2022-12-05T02:21:59.377Z,19.02
2022-12-05T02:24:25.712Z,19.05
2022-12-05T02:27:15.321Z,19.42
2022-12-05T02:29:41.605Z,19.60
2022-12-05T02:32:10.694Z,20.92
2022-12-05T02:34:45.082Z,20.83
2022-12-05T02:37:14.739Z,19.65
2022-12-05T02:39:47.259Z,20.20
2022-12-05T02:42:18.772Z,19.55
2022-12-05T02:44:53.917Z,19.85
2022-12-05T02:47:23.021Z,18.67
2022-12-05T02:49:49.872Z,18.80
2022-12-05T02:52:16.836Z,18.90
2022-12-05T02:54:44.832Z,16.95
2022-12-05T02:57:12.391Z,15.55
2022-12-05T02:59:39.045Z,17.20
2022-12-05T03:02:05.486Z,17.23
2022-12-05T03:04:32.013Z,15.85
2022-12-05T03:07:06.604Z,15.65
2022-12-05T03:09:42.528Z,17.15
2022-12-05T03:12:19.916Z,15.75
2022-12-05T03:14:48.265Z,15.77
2022-12-05T03:17:18.530Z,15.52
2022-12-05T03:20:00.093Z,14.70
2022-12-05T03:22:35.384Z,15.52
2022-12-05T03:25:02.623Z,14.25
2022-12-05T03:27:44.183Z,14.48
2022-12-05T03:30:12.381Z,14.05
2022-12-05T03:32:57.454Z,15.93
2022-12-05T03:35:39.819Z,17.48
2022-12-05T03:38:27.383Z,17.80
2022-12-05T03:40:57.073Z,17.98
2022-12-05T03:43:31.678Z,17.95
2022-12-05T03:45:57.999Z,19.13
2022-12-05T03:48:30.233Z,17.90
2022-12-05T03:50:57.823Z,19.23
2022-12-05T03:53:37.812Z,18.77
2022-12-05T03:56:06.336Z,17.95
2022-12-05T03:58:35.518Z,18.05
2022-12-05T04:01:04.748Z,17.55
2022-12-05T04:03:40.865Z,17.25
2022-12-05T04:06:30.663Z,17.75
2022-12-05T04:09:02.403Z,17.95
2022-12-05T04:11:32.036Z,17.20
2022-12-05T04:14:00.829Z,17.65
2022-12-05T04:17:05.730Z,17.73
2022-12-05T04:19:54.884Z,17.42
2022-12-05T04:22:21.336Z,17.15
2022-12-05T04:25:07.847Z,17.38
2022-12-05T04:27:39.246Z,16.95
2022-12-05T04:30:05.829Z,15.90
2022-12-05T04:32:43.255Z,16.17
2022-12-05T04:35:12.960Z,15.98
2022-12-05T04:37:42.090Z,16.75
2022-12-05T04:40:28.818Z,15.63
2022-12-05T04:42:56.491Z,15.80
2022-12-05T04:45:24.040Z,15.68
2022-12-05T04:47:53.504Z,16.08
2022-12-05T04:50:20.719Z,16.15
2022-12-05T04:52:49.742Z,15.77
2022-12-05T04:55:17.863Z,16.17
2022-12-05T04:57:53.419Z,17.08
2022-12-05T05:00:19.938Z,15.80
2022-12-05T05:02:55.881Z,16.52
2022-12-05T05:05:23.185Z,16.52
2022-12-05T05:07:51.180Z,15.93
2022-12-05T05:10:36.630Z,17.15
2022-12-05T05:13:02.962Z,16.88
2022-12-05T05:15:29.371Z,15.93
2022-12-05T05:17:55.797Z,16.40
2022-12-05T05:20:25.144Z,16.50
2022-12-05T05:22:51.772Z,17.25
2022-12-05T05:25:18.524Z,17.85
2022-12-05T05:27:48.074Z,18.55
2022-12-05T05:30:14.529Z,19.05
2022-12-05T05:32:40.883Z,17.75
2022-12-05T05:35:07.333Z,17.98
2022-12-05T05:37:33.679Z,18.50
2022-12-05T05:40:00.778Z,18.83
2022-12-05T05:42:28.350Z,19.00
2022-12-05T05:44:54.638Z,20.23
2022-12-05T05:47:20.971Z,21.17
2022-12-05T05:49:47.256Z,20.00
2022-12-05T05:52:13.580Z,19.52
2022-12-05T05:54:40.077Z,18.50
2022-12-05T05:57:06.561Z,20.83
2022-12-05T05:59:33.003Z,19.95
2022-12-05T06:01:59.611Z,19.73
2022-12-05T06:04:25.962Z,20.35
2022-12-05T06:06:52.266Z,20.40
2022-12-05T06:09:18.596Z,18.85
2022-12-05T06:11:44.868Z,19.33
2022-12-05T06:14:11.213Z,19.00
2022-12-05T06:16:37.580Z,19.80
2022-12-05T06:19:03.921Z,21.08
2022-12-05T06:21:30.249Z,22.27
2022-12-05T06:23:56.779Z,21.25
2022-12-05T06:26:23.108Z,21.70
2022-12-05T06:28:49.498Z,21.85
2022-12-05T06:31:17.497Z,21.45
2022-12-05T06:33:44.193Z,19.90
2022-12-05T06:36:11.902Z,19.58
2022-12-05T06:38:42.079Z,20.08
2022-12-05T06:41:10.635Z,20.80
2022-12-05T06:43:37.155Z,21.08
2022-12-05T06:46:07.499Z,20.20
2022-12-05T06:48:34.295Z,20.75
2022-12-05T06:51:00.658Z,21.33
2022-12-05T06:53:27.131Z,19.98
2022-12-05T06:56:00.787Z,21.63
2022-12-05T06:58:27.348Z,21.02
2022-12-05T07:01:12.520Z,21.17
2022-12-05T07:03:39.156Z,20.02
2022-12-05T07:06:06.140Z,20.80
2022-12-05T07:08:32.735Z,21.30
2022-12-05T07:10:59.167Z,19.83
2022-12-05T07:13:25.499Z,21.13
2022-12-05T07:15:51.829Z,21.25
2022-12-05T07:18:18.260Z,20.83
2022-12-05T07:21:10.646Z,20.67
2022-12-05T07:23:31.166Z,21.13
2022-12-05T07:26:00.497Z,22.63
2022-12-05T07:28:26.810Z,20.58
2022-12-05T07:31:07.100Z,21.85
2022-12-05T07:33:33.416Z,21.63
2022-12-05T07:36:00.855Z,22.80
2022-12-05T07:38:27.589Z,22.02
2022-12-05T07:40:53.944Z,21.95
2022-12-05T07:43:20.557Z,21.67
2022-12-05T07:45:46.917Z,21.15
2022-12-05T07:48:18.191Z,22.00
2022-12-05T07:50:45.052Z,21.63
2022-12-05T07:53:11.370Z,22.70
2022-12-05T07:55:38.261Z,23.08
2022-12-05T07:58:04.648Z,22.30
2022-12-05T08:00:30.981Z,21.95
2022-12-05T08:02:57.350Z,21.95
2022-12-05T08:05:23.690Z,21.75
2022-12-05T08:07:50.019Z,21.45
2022-12-05T08:10:16.493Z,23.02
2022-12-05T08:12:42.837Z,22.00
2022-12-05T08:15:09.535Z,22.27
2022-12-05T08:17:35.849Z,21.58
2022-12-05T08:20:02.537Z,26.55
2022-12-05T08:22:29.156Z,21.80
2022-12-05T08:24:56.468Z,21.17
2022-12-05T08:27:22.963Z,21.08
2022-12-05T08:29:49.285Z,22.65
2022-12-05T08:32:15.809Z,23.02
2022-12-05T08:34:42.314Z,21.85
2022-12-05T08:37:08.698Z,22.00
2022-12-05T08:39:38.674Z,21.27
2022-12-05T08:42:05.335Z,21.13
2022-12-05T08:44:31.627Z,20.45
2022-12-05T08:46:58.017Z,19.67
2022-12-05T08:49:24.349Z,20.25
2022-12-05T08:51:50.670Z,19.63
2022-12-05T08:54:17.227Z,19.45
2022-12-05T08:56:43.608Z,20.75
2022-12-05T08:59:09.972Z,21.80
2022-12-05T09:01:38.818Z,20.33
2022-12-05T09:04:05.851Z,21.17
2022-12-05T09:06:32.643Z,21.08
2022-12-05T09:08:59.939Z,20.98
2022-12-05T09:11:30.531Z,21.65
2022-12-05T09:13:57.781Z,22.15
2022-12-05T09:16:25.819Z,22.00
2022-12-05T09:18:52.453Z,21.00
2022-12-05T09:21:19.968Z,21.73
2022-12-05T09:23:46.605Z,22.02
2022-12-05T09:26:15.081Z,22.02
2022-12-05T09:28:41.432Z,21.42
2022-12-05T09:31:09.498Z,21.95
2022-12-05T09:33:36.757Z,21.10
2022-12-05T09:36:06.856Z,21.75
2022-12-05T09:38:34.542Z,21.25
2022-12-05T09:41:13.339Z,22.65
2022-12-05T09:43:48.875Z,21.08
2022-12-05T09:46:36.102Z,21.13
2022-12-05T09:49:04.662Z,21.67
2022-12-05T09:51:32.096Z,21.35
2022-12-05T09:53:58.721Z,22.30
2022-12-05T09:56:30.007Z,22.40
2022-12-05T09:58:57.790Z,21.95
2022-12-05T10:01:24.142Z,22.67
2022-12-05T10:04:02.690Z,22.27
2022-12-05T10:06:32.174Z,24.45
2022-12-05T10:08:58.450Z,22.73
2022-12-05T10:11:45.832Z,21.73
2022-12-05T10:14:15.162Z,22.15
2022-12-05T10:16:50.460Z,22.90
2022-12-05T10:19:21.252Z,22.73
2022-12-05T10:21:56.688Z,22.80
2022-12-05T10:24:46.278Z,24.42
2022-12-05T10:27:19.350Z,23.70
2022-12-05T10:29:50.652Z,24.63
2022-12-05T10:32:23.788Z,22.90
2022-12-05T10:34:50.223Z,24.13
2022-12-05T10:37:18.108Z,26.48
2022-12-05T10:39:45.268Z,25.23
2022-12-05T10:42:29.498Z,24.52
2022-12-05T10:44:58.395Z,25.90
2022-12-05T10:47:25.206Z,25.05
2022-12-05T10:49:52.388Z,24.55
2022-12-05T10:52:18.736Z,24.90
2022-12-05T10:54:51.207Z,24.15
2022-12-05T10:57:22.213Z,24.73
2022-12-05T10:59:48.740Z,24.60
2022-12-05T11:02:30.577Z,24.08
2022-12-05T11:04:58.419Z,23.90
2022-12-05T11:07:36.296Z,25.05
2022-12-05T11:10:21.077Z,23.77
2022-12-05T11:12:50.137Z,24.40
2022-12-05T11:15:16.835Z,23.83
2022-12-05T11:17:43.251Z,24.50
2022-12-05T11:20:15.576Z,24.50
2022-12-05T11:22:45.743Z,22.73
2022-12-05T11:25:23.891Z,22.95
2022-12-05T11:27:50.165Z,23.48
2022-12-05T11:30:21.141Z,22.88
2022-12-05T11:32:47.590Z,21.50
2022-12-05T11:35:13.900Z,21.67
2022-12-05T11:37:46.555Z,21.80
2022-12-05T11:40:14.605Z,21.77
2022-12-05T11:42:48.210Z,20.67
2022-12-05T11:45:35.458Z,23.02
2022-12-05T11:48:16.773Z,21.50
2022-12-05T11:50:52.292Z,17.33
2022-12-05T11:53:21.644Z,16.63
2022-12-05T11:56:14.592Z,16.88
2022-12-05T11:58:45.789Z,17.65
2022-12-05T12:01:21.174Z,17.15
2022-12-05T12:03:55.954Z,16.90
2022-12-05T12:06:31.259Z,17.80
2022-12-05T12:09:20.983Z,18.00
2022-12-05T12:11:56.483Z,18.02
2022-12-05T12:14:31.347Z,18.60
2022-12-05T12:16:57.726Z,17.88
2022-12-05T12:19:36.345Z,19.60
2022-12-05T12:22:18.502Z,21.85
2022-12-05T12:25:00.640Z,22.40
2022-12-05T12:27:46.064Z,20.65
2022-12-05T12:30:17.412Z,20.98
2022-12-05T12:32:52.655Z,20.90
2022-12-05T12:35:24.972Z,39.00
2022-12-05T12:38:03.417Z,35.92
2022-12-05T12:40:34.602Z,27.40
2022-12-05T12:43:44.806Z,23.88
2022-12-05T12:46:11.296Z,22.63
2022-12-05T12:48:53.026Z,20.90
2022-12-05T12:51:19.512Z,22.35
2022-12-05T12:53:57.193Z,23.80
2022-12-05T12:56:38.639Z,25.30
2022-12-05T12:59:17.106Z,23.58
2022-12-05T13:01:50.725Z,23.70
2022-12-05T13:04:23.636Z,23.33
2022-12-05T13:06:55.968Z,21.87
2022-12-05T13:09:34.516Z,21.17
2022-12-05T13:12:04.918Z,22.55
2022-12-05T13:14:33.770Z,39.90
2022-12-05T13:17:01.233Z,26.73
2022-12-05T13:19:43.229Z,21.90
2022-12-05T13:22:09.826Z,19.85
2022-12-05T13:24:36.170Z,21.45
2022-12-05T13:27:05.283Z,20.25
2022-12-05T13:29:41.817Z,21.05
2022-12-05T13:32:24.743Z,21.58
2022-12-05T13:34:51.466Z,21.70
2022-12-05T13:37:41.504Z,19.83
2022-12-05T13:40:39.830Z,20.48
2022-12-05T13:43:06.515Z,18.73
2022-12-05T13:45:34.528Z,21.40
2022-12-05T13:48:11.796Z,20.33
2022-12-05T13:50:43.861Z,20.58
2022-12-05T13:53:19.248Z,21.38
2022-12-05T13:55:59.747Z,22.42
2022-12-05T13:58:26.051Z,21.00
2022-12-05T14:01:12.310Z,20.30
2022-12-05T14:03:38.656Z,19.52
2022-12-05T14:06:06.397Z,19.80
2022-12-05T14:08:35.771Z,19.70
2022-12-05T14:11:02.363Z,19.33
2022-12-05T14:13:30.000Z,20.67
2022-12-05T14:16:16.320Z,20.15
2022-12-05T14:18:46.569Z,19.65
2022-12-05T14:21:12.896Z,18.92
2022-12-05T14:23:39.979Z,20.77
2022-12-05T14:26:31.416Z,20.77
2022-12-05T14:29:01.261Z,20.65
2022-12-05T14:31:37.022Z,21.13
2022-12-05T14:34:04.957Z,19.33
2022-12-05T14:36:31.725Z,19.58
2022-12-05T14:38:58.640Z,20.73
2022-12-05T14:41:33.158Z,21.45
2022-12-05T14:44:05.106Z,20.58
2022-12-05T14:46:34.677Z,20.90
2022-12-05T14:49:20.963Z,20.50
2022-12-05T14:51:55.838Z,18.73
2022-12-05T14:54:23.316Z,20.05
2022-12-05T14:56:52.472Z,18.98
2022-12-05T14:59:18.736Z,20.85
2022-12-05T15:02:05.509Z,19.90
2022-12-05T15:04:51.582Z,19.38
2022-12-05T15:07:25.627Z,18.35
2022-12-05T15:09:51.934Z,19.70
2022-12-05T15:12:20.780Z,18.83
2022-12-05T15:14:50.070Z,20.95
2022-12-05T15:17:18.555Z,20.63
2022-12-05T15:19:57.620Z,19.85
2022-12-05T15:22:26.447Z,18.98
2022-12-05T15:24:52.847Z,19.58
2022-12-05T15:27:20.119Z,19.85
2022-12-05T15:29:46.473Z,18.63
2022-12-05T15:32:12.826Z,19.00
2022-12-05T15:34:44.935Z,20.40
2022-12-05T15:37:26.259Z,20.60
2022-12-05T15:39:53.451Z,20.38
2022-12-05T15:42:24.830Z,19.80
2022-12-05T15:45:10.248Z,20.30
2022-12-05T15:47:36.579Z,20.48
2022-12-05T15:50:03.737Z,19.40
2022-12-05T15:52:45.361Z,20.67
2022-12-05T15:55:13.865Z,21.33
2022-12-05T15:57:46.313Z,21.38
2022-12-05T16:00:17.673Z,20.95
2022-12-05T16:02:49.865Z,21.30
2022-12-05T16:05:20.480Z,19.27
2022-12-05T16:07:48.048Z,18.58
2022-12-05T16:10:15.690Z,18.52
2022-12-05T16:12:42.740Z,22.50
2022-12-05T16:15:21.613Z,19.92
2022-12-05T16:17:51.910Z,20.35
2022-12-05T16:20:18.208Z,19.52
2022-12-05T16:22:45.887Z,20.70
2022-12-05T16:25:16.915Z,21.77
2022-12-05T16:27:55.250Z,21.38
2022-12-05T16:30:22.275Z,22.20
2022-12-05T16:32:49.744Z,23.55
2022-12-05T16:35:28.408Z,23.23
2022-12-05T16:38:15.124Z,22.60
2022-12-05T16:41:01.805Z,21.58
2022-12-05T16:43:40.714Z,20.92
2022-12-05T16:46:13.319Z,21.80
2022-12-05T16:48:40.635Z,19.35
2022-12-05T16:51:13.141Z,26.75
2022-12-05T16:53:40.564Z,23.33
2022-12-05T16:56:07.495Z,22.42
2022-12-05T16:58:34.861Z,20.75
2022-12-05T17:01:02.576Z,19.52
2022-12-05T17:03:36.481Z,18.25
2022-12-05T17:06:03.112Z,20.08
2022-12-05T17:08:29.553Z,17.83
2022-12-05T17:10:55.919Z,18.50
2022-12-05T17:13:22.207Z,18.75
2022-12-05T17:15:49.419Z,20.13
2022-12-05T17:18:16.883Z,19.55
2022-12-05T17:20:44.759Z,20.25
2022-12-05T17:23:11.858Z,19.70
2022-12-05T17:25:38.777Z,20.67
2022-12-05T17:28:05.045Z,19.50
2022-12-05T17:30:34.169Z,20.50
2022-12-05T17:33:01.176Z,21.67
2022-12-05T17:35:28.709Z,20.55
2022-12-05T17:37:54.975Z,19.65
2022-12-05T17:40:21.329Z,19.60
2022-12-05T17:42:48.528Z,20.00
2022-12-05T17:45:15.829Z,19.48
2022-12-05T17:47:42.684Z,20.08
2022-12-05T17:50:14.231Z,19.75
2022-12-05T17:52:40.717Z,18.67
2022-12-05T17:55:08.083Z,20.52
2022-12-05T17:57:35.241Z,17.98
2022-12-05T18:00:01.623Z,18.58
2022-12-05T18:02:27.952Z,19.27
2022-12-05T18:04:54.285Z,17.58
2022-12-05T18:07:20.653Z,18.27
2022-12-05T18:09:46.997Z,19.55
2022-12-05T18:12:13.315Z,18.17
2022-12-05T18:14:39.596Z,17.10
2022-12-05T18:17:05.914Z,16.98
2022-12-05T18:19:32.216Z,17.50
2022-12-05T18:21:58.574Z,17.48
2022-12-05T18:24:24.910Z,18.17
2022-12-05T18:26:51.282Z,20.55
2022-12-05T18:29:17.724Z,20.27
2022-12-05T18:31:44.234Z,19.55
2022-12-05T18:34:10.597Z,19.75
2022-12-05T18:36:36.874Z,20.08
2022-12-05T18:39:03.366Z,21.33
2022-12-05T18:41:29.628Z,19.50
2022-12-05T18:43:55.940Z,19.50
2022-12-05T18:46:22.655Z,19.92
2022-12-05T18:48:49.028Z,19.35
2022-12-05T18:51:20.555Z,20.50
2022-12-05T18:53:52.109Z,20.58
2022-12-05T18:56:22.754Z,20.73
2022-12-05T18:58:54.043Z,20.05
2022-12-05T19:01:21.085Z,20.17
2022-12-05T19:03:48.875Z,20.10
2022-12-05T19:06:16.906Z,20.90
2022-12-05T19:08:46.782Z,20.85
2022-12-05T19:11:14.639Z,21.10
2022-12-05T19:13:41.062Z,21.85
2022-12-05T19:16:08.901Z,20.15
2022-12-05T19:18:35.348Z,19.95
2022-12-05T19:21:01.986Z,19.35
2022-12-05T19:23:28.540Z,20.27
2022-12-05T19:25:55.787Z,18.98
2022-12-05T19:28:22.115Z,19.02
2022-12-05T19:30:48.447Z,18.95
2022-12-05T19:33:14.782Z,18.55
2022-12-05T19:35:41.173Z,19.73
2022-12-05T19:38:07.498Z,20.20
2022-12-05T19:40:33.836Z,20.25
2022-12-05T19:43:00.251Z,20.73
2022-12-05T19:45:26.580Z,19.65
2022-12-05T19:47:52.957Z,18.25
2022-12-05T19:50:19.484Z,18.90
2022-12-05T19:52:45.771Z,18.67
2022-12-05T19:55:12.106Z,19.75
2022-12-05T19:57:38.435Z,18.90
2022-12-05T20:00:05.195Z,18.98
2022-12-05T20:02:40.293Z,19.23
2022-12-05T20:05:07.001Z,20.00
2022-12-05T20:07:34.109Z,19.58
2022-12-05T20:10:00.740Z,19.13
2022-12-05T20:12:27.237Z,19.00
2022-12-05T20:14:53.538Z,21.52
2022-12-05T20:17:20.757Z,20.60
2022-12-05T20:19:47.035Z,20.60
2022-12-05T20:22:13.327Z,19.08
2022-12-05T20:24:39.620Z,19.67
2022-12-05T20:27:07.249Z,20.02
2022-12-05T20:29:33.550Z,19.35
2022-12-05T20:31:59.840Z,19.15
2022-12-05T20:34:26.192Z,20.10
2022-12-05T20:36:52.520Z,19.60
2022-12-05T20:39:18.790Z,20.00
2022-12-05T20:41:45.408Z,19.63
2022-12-05T20:44:13.560Z,20.27
2022-12-05T20:46:40.618Z,20.88
2022-12-05T20:49:07.218Z,20.70
2022-12-05T20:51:34.221Z,20.40
2022-12-05T20:54:02.201Z,21.75
2022-12-05T20:56:29.716Z,20.38
2022-12-05T20:58:57.207Z,20.08
2022-12-05T21:01:24.328Z,20.13
2022-12-05T21:03:51.632Z,19.95
2022-12-05T21:06:28.769Z,21.05
2022-12-05T21:08:55.131Z,20.35
2022-12-05T21:11:22.007Z,21.25
2022-12-05T21:13:48.493Z,21.15
2022-12-05T21:16:17.615Z,19.75
2022-12-05T21:18:44.470Z,15.70
2022-12-05T21:21:14.940Z,13.20
2022-12-05T21:23:41.899Z,10.90
2022-12-05T21:26:10.307Z,9.65
2022-12-05T21:28:37.039Z,8.43
2022-12-05T21:31:17.452Z,8.50
2022-12-05T21:33:46.656Z,7.53
2022-12-05T21:36:13.179Z,7.25
2022-12-05T21:38:39.575Z,6.30
2022-12-05T21:41:06.343Z,5.68
2022-12-05T21:43:33.716Z,5.38
2022-12-05T21:46:00.221Z,5.03
2022-12-05T21:48:26.629Z,4.75
2022-12-05T21:50:53.329Z,4.93
2022-12-05T21:53:19.814Z,4.95
2022-12-05T21:55:46.193Z,4.90
2022-12-05T21:58:12.888Z,4.80
2022-12-05T22:00:39.401Z,4.30
2022-12-05T22:03:06.311Z,4.95
2022-12-05T22:05:33.407Z,4.68
2022-12-05T22:08:04.769Z,4.88
2022-12-05T22:10:33.616Z,4.97
2022-12-05T22:12:59.993Z,5.13
2022-12-05T22:15:26.307Z,4.85
2022-12-05T22:17:52.578Z,4.72
2022-12-05T22:20:18.948Z,4.40
2022-12-05T22:22:45.331Z,4.65
2022-12-05T22:25:11.625Z,4.55
2022-12-05T22:27:37.952Z,4.65
2022-12-05T22:30:04.818Z,5.00
2022-12-05T22:32:31.150Z,4.35
2022-12-05T22:35:03.341Z,4.18
2022-12-05T22:37:30.200Z,4.53
2022-12-05T22:39:56.851Z,4.05
2022-12-05T22:42:23.493Z,3.88
2022-12-05T22:44:49.868Z,4.05
2022-12-05T22:47:16.141Z,3.97
2022-12-05T22:49:42.428Z,3.70
2022-12-05T22:52:08.738Z,3.50
2022-12-05T22:54:35.042Z,3.63
2022-12-05T22:57:01.378Z,4.25
2022-12-05T22:59:27.694Z,3.95
2022-12-05T23:01:54.066Z,4.10
2022-12-05T23:04:20.425Z,4.03
2022-12-05T23:06:46.777Z,4.07
2022-12-05T23:09:14.463Z,4.40
2022-12-05T23:11:40.827Z,4.68
2022-12-05T23:14:07.173Z,4.95
2022-12-05T23:16:33.711Z,5.00
2022-12-05T23:19:01.384Z,4.85
2022-12-05T23:21:29.618Z,5.45
2022-12-05T23:23:57.436Z,5.07
2022-12-05T23:26:25.285Z,4.93
2022-12-05T23:28:51.680Z,5.78
2022-12-05T23:31:18.388Z,6.28
2022-12-05T23:33:45.092Z,5.82
2022-12-05T23:36:11.743Z,5.63
2022-12-05T23:38:39.144Z,5.95
2022-12-05T23:41:07.095Z,6.07
2022-12-05T23:43:34.187Z,6.43
2022-12-05T23:46:00.677Z,6.50
2022-12-05T23:48:27.509Z,5.60
2022-12-05T23:51:01.081Z,5.88
2022-12-05T23:53:28.221Z,6.50
2022-12-05T23:55:54.855Z,5.95
2022-12-05T23:58:21.241Z,6.38
